Atlanta, Georgia
Traffic Map
Current Weather Conditions
Atlanta, Georgia
Overcast Light Rain
Overcast
46°
Feels Like: 40°
Wind Chill: 40° Ceiling: 500
Heat Index: 46° Visibility: 7mi
Dew Point: 44° Wind: 15mph
Humidity: 93% Direction: 80° (E)
Pressure: 30.08in Gusts: 0mph
Raw Report DataKATL 230952Z 08013KT 7SM -RA OVC005 08/07 A3008 RMK AO2 SLP186 P0009 T00780067 $
Traffic Incident Summary
Active as of:
Severity:
Category:
InformationThere was an issue retrieving the traffic information for this location. Please try a different location or try again shortly.
Advertisements
Track Severe Weather on mobile